Allegro — J8B5341 — position and weather

sailwx.info

Track history (hours):
 
Tides and Currents Weather Stations Pressure Air Temp Water Temp Dewpoint Dewpoint Depression Visibility Wind Speed Wind Dir Waves Ship Positions

Allegro

Last reported at 2017-Nov-16 08:11 UTC. Time now 2017-Nov-22 01:43 UTC.
Position N 26°21' W 079°43'.

Length 100 m; draft 4.6 m.

Type: Ship. MMSI: 376609000.

Date/timePositionNaut miles runAvg speedWind from/ knotsBaromVisibWave heightAir tempDewpointWater temp
2017-Nov-16 08:11N 26°21' W 079°43'210.6
2017-Nov-16 07:57N 26°19' W 079°45'511.1
2017-Nov-16 07:30N 26°16' W 079°49'611.4
2017-Nov-16 07:00N 26°12' W 079°54'611.1
2017-Nov-16 06:30N 26°08' W 079°58'510.7
2017-Nov-16 06:00N 26°06' W 080°04'3 6.2
2017-Nov-16 05:31N 26°05' W 080°07'0 0.4
2017-Nov-16 05:00N 26°04' W 080°07'0 0.0
2017-Nov-16 04:30N 26°04' W 080°07'0 0.0
2017-Nov-16 04:00N 26°04' W 080°07'0 0.0
2017-Nov-16 03:30N 26°04' W 080°07'0 0.0
2017-Nov-16 03:00N 26°04' W 080°07'0 0.0
2017-Nov-16 02:30N 26°04' W 080°07'0 0.0
2017-Nov-16 02:00N 26°04' W 080°07'0 0.0
2017-Nov-16 01:30N 26°04' W 080°07'0 0.0
2017-Nov-16 01:00N 26°04' W 080°07'1 1.8
2017-Nov-16 00:30N 26°05' W 080°07'2 4.8
2017-Nov-16 00:01N 26°06' W 080°04'1 1.4
2017-Nov-15 23:30N 26°07' W 080°04'0 0.9
2017-Nov-15 23:00N 26°06' W 080°04'1 1.2
2017-Nov-15 22:30N 26°07' W 080°05'0 0.1
2017-Nov-15 21:59N 26°07' W 080°05'0 0.0
2017-Nov-15 21:29N 26°07' W 080°05'0 0.0
2017-Nov-15 20:56N 26°07' W 080°05'0 0.0
2017-Nov-15 20:23N 26°07' W 080°05'0 0.0
2017-Nov-15 19:50N 26°07' W 080°05'0 0.0
2017-Nov-15 19:16N 26°07' W 080°05'0 0.0
2017-Nov-15 18:58N 26°07' W 080°05'0 0.0
2017-Nov-15 18:25N 26°07' W 080°05'0 0.1
2017-Nov-15 17:52N 26°07' W 080°05'0 0.0
2017-Nov-15 17:18N 26°07' W 080°05'0 0.0
2017-Nov-15 17:00N 26°07' W 080°05'0 0.0
2017-Nov-15 16:30N 26°07' W 080°05'0 0.0
2017-Nov-15 16:00N 26°07' W 080°05'0 0.3
2017-Nov-15 15:30N 26°07' W 080°05'4 7.2
2017-Nov-15 15:00N 26°07' W 080°01'4 8.9
2017-Nov-15 14:30N 26°08' W 079°56'4 8.9
2017-Nov-15 14:00N 26°09' W 079°51'5 9.6
2017-Nov-15 13:30N 26°10' W 079°46'5 9.5
2017-Nov-15 13:00N 26°12' W 079°41'5 9.7
2017-Nov-15 12:30N 26°15' W 079°37'4 7.2
2017-Nov-15 12:00N 26°13' W 079°33'5 9.7
2017-Nov-15 11:30N 26°09' W 079°30'3 6.6
2017-Nov-15 11:00N 26°08' W 079°27'611.2
2017-Nov-15 10:28N 26°13' W 079°23'15 0.5
2017-Nov-14 03:10N 26°15' W 079°40'2 9.8
2017-Nov-14 03:00N 26°14' W 079°41'5 9.9
2017-Nov-14 02:31N 26°11' W 079°45'5 9.3
2017-Nov-14 02:00N 26°09' W 079°50'510.2
2017-Nov-14 01:30N 26°07' W 079°55'510.9
2017-Nov-14 01:00N 26°06' W 080°01'5 9.7
2017-Nov-14 00:31N 26°06' W 080°06'2 3.1
2017-Nov-14 00:00N 26°04' W 080°07'0 0.0
2017-Nov-13 23:30N 26°04' W 080°07'0 0.0
2017-Nov-13 23:01N 26°04' W 080°07'0 0.0
2017-Nov-13 22:31N 26°04' W 080°07'0 0.0
2017-Nov-13 22:01N 26°04' W 080°07'  
2017-Nov-09 05:18N 26°08' W 079°30'311.5
2017-Nov-09 05:00N 26°07' W 079°34'611.4
2017-Nov-09 04:30N 26°07' W 079°40'611.3
2017-Nov-09 04:00N 26°07' W 079°47'611.5
2017-Nov-09 03:30N 26°06' W 079°53'611.8
2017-Nov-09 03:00N 26°05' W 079°60'510.4
2017-Nov-09 02:30N 26°06' W 080°05'2 4.0
2017-Nov-09 02:00N 26°04' W 080°07'0 0.1
2017-Nov-09 01:30N 26°04' W 080°07'0 0.0
2017-Nov-09 01:00N 26°04' W 080°07'0 0.0
2017-Nov-09 00:30N 26°04' W 080°07'0 0.0
2017-Nov-09 00:00N 26°04' W 080°07'0 0.0
2017-Nov-08 23:30N 26°04' W 080°07'0 0.0
2017-Nov-08 23:00N 26°04' W 080°07'0 0.0
2017-Nov-08 22:30N 26°04' W 080°07'0 0.0
2017-Nov-08 22:00N 26°04' W 080°07'0 0.0
2017-Nov-08 21:30N 26°04' W 080°07'0 0.0
2017-Nov-08 21:00N 26°04' W 080°07'0 0.0
2017-Nov-08 20:30N 26°04' W 080°07'0 0.0
2017-Nov-08 20:00N 26°04' W 080°07'0 0.0
2017-Nov-08 19:30N 26°04' W 080°07'0 0.0
2017-Nov-08 19:00N 26°04' W 080°07'0 0.1
2017-Nov-08 18:30N 26°04' W 080°07'3 5.6
2017-Nov-08 18:00N 26°06' W 080°04'2 4.2
2017-Nov-08 17:31N 26°08' W 080°04'0 0.1
2017-Nov-08 16:59N 26°08' W 080°04'0 0.0
2017-Nov-08 16:29N 26°08' W 080°04'0 0.0
2017-Nov-08 15:59N 26°08' W 080°04'0 0.0
2017-Nov-08 15:30N 26°08' W 080°04'0 0.0
2017-Nov-08 15:00N 26°08' W 080°04'0 0.0
2017-Nov-08 14:30N 26°08' W 080°04'0 0.0
2017-Nov-08 14:00N 26°08' W 080°04'0 0.0
2017-Nov-08 13:30N 26°08' W 080°04'0 0.1
2017-Nov-08 13:01N 26°08' W 080°05'510.0
2017-Nov-08 12:30N 26°10' W 079°60'510.8
2017-Nov-08 12:00N 26°13' W 079°54'510.5
2017-Nov-08 11:30N 26°16' W 079°50'510.1
2017-Nov-08 11:00N 26°19' W 079°45'4 7.7
2017-Nov-08 10:30N 26°19' W 079°41'714.1
2017-Nov-08 10:00N 26°13' W 079°37'510.3
2017-Nov-08 09:30N 26°11' W 079°32'611.2
2017-Nov-08 08:59N 26°12' W 079°25'5 0.2
2017-Nov-07 02:56N 26°08' W 079°29'511.6
2017-Nov-07 02:30N 26°08' W 079°34'611.4
2017-Nov-07 02:00N 26°08' W 079°41'611.2
2017-Nov-07 01:30N 26°08' W 079°47'611.2
2017-Nov-07 01:00N 26°07' W 079°53'511.0
2017-Nov-07 00:30N 26°06' W 079°59'510.7
2017-Nov-07 00:00N 26°05' W 080°05'2 4.1
2017-Nov-06 23:30N 26°04' W 080°07'0 0.1
2017-Nov-06 23:00N 26°04' W 080°07'0 0.0
2017-Nov-06 22:30N 26°04' W 080°07'0 0.0
2017-Nov-06 22:00N 26°04' W 080°07'0 0.0
2017-Nov-06 21:30N 26°04' W 080°07'0 0.0
2017-Nov-06 21:00N 26°04' W 080°07'0 0.0
2017-Nov-06 20:30N 26°04' W 080°07'  
Track history (hours):
 
Tides and Currents Weather Stations Pressure Air Temp Water Temp Dewpoint Dewpoint Depression Visibility Wind Speed Wind Dir Waves Ship Positions

Allegro

Last reported at 2017-Nov-16 08:11 UTC. Time now 2017-Nov-22 01:43 UTC.
Position N 26°21' W 079°43'.

Length 100 m; draft 4.6 m.

Type: Ship. MMSI: 376609000.

Date/timePositionNaut miles runAvg speedWind from/ knotsBaromVisibWave heightAir tempDewpointWater temp
2017-Nov-16 08:11N 26°21' W 079°43'210.6
2017-Nov-16 07:57N 26°19' W 079°45'511.1
2017-Nov-16 07:30N 26°16' W 079°49'611.4
2017-Nov-16 07:00N 26°12' W 079°54'611.1
2017-Nov-16 06:30N 26°08' W 079°58'510.7
2017-Nov-16 06:00N 26°06' W 080°04'3 6.2
2017-Nov-16 05:31N 26°05' W 080°07'0 0.4
2017-Nov-16 05:00N 26°04' W 080°07'0 0.0
2017-Nov-16 04:30N 26°04' W 080°07'0 0.0
2017-Nov-16 04:00N 26°04' W 080°07'0 0.0
2017-Nov-16 03:30N 26°04' W 080°07'0 0.0
2017-Nov-16 03:00N 26°04' W 080°07'0 0.0
2017-Nov-16 02:30N 26°04' W 080°07'0 0.0
2017-Nov-16 02:00N 26°04' W 080°07'0 0.0
2017-Nov-16 01:30N 26°04' W 080°07'0 0.0
2017-Nov-16 01:00N 26°04' W 080°07'1 1.8
2017-Nov-16 00:30N 26°05' W 080°07'2 4.8
2017-Nov-16 00:01N 26°06' W 080°04'1 1.4
2017-Nov-15 23:30N 26°07' W 080°04'0 0.9
2017-Nov-15 23:00N 26°06' W 080°04'1 1.2
2017-Nov-15 22:30N 26°07' W 080°05'0 0.1
2017-Nov-15 21:59N 26°07' W 080°05'0 0.0
2017-Nov-15 21:29N 26°07' W 080°05'0 0.0
2017-Nov-15 20:56N 26°07' W 080°05'0 0.0
2017-Nov-15 20:23N 26°07' W 080°05'0 0.0
2017-Nov-15 19:50N 26°07' W 080°05'0 0.0
2017-Nov-15 19:16N 26°07' W 080°05'0 0.0
2017-Nov-15 18:58N 26°07' W 080°05'0 0.0
2017-Nov-15 18:25N 26°07' W 080°05'0 0.1
2017-Nov-15 17:52N 26°07' W 080°05'0 0.0
2017-Nov-15 17:18N 26°07' W 080°05'0 0.0
2017-Nov-15 17:00N 26°07' W 080°05'0 0.0
2017-Nov-15 16:30N 26°07' W 080°05'0 0.0
2017-Nov-15 16:00N 26°07' W 080°05'0 0.3
2017-Nov-15 15:30N 26°07' W 080°05'4 7.2
2017-Nov-15 15:00N 26°07' W 080°01'4 8.9
2017-Nov-15 14:30N 26°08' W 079°56'4 8.9
2017-Nov-15 14:00N 26°09' W 079°51'5 9.6
2017-Nov-15 13:30N 26°10' W 079°46'5 9.5
2017-Nov-15 13:00N 26°12' W 079°41'5 9.7
2017-Nov-15 12:30N 26°15' W 079°37'4 7.2
2017-Nov-15 12:00N 26°13' W 079°33'5 9.7
2017-Nov-15 11:30N 26°09' W 079°30'3 6.6
2017-Nov-15 11:00N 26°08' W 079°27'611.2
2017-Nov-15 10:28N 26°13' W 079°23'15 0.5
2017-Nov-14 03:10N 26°15' W 079°40'2 9.8
2017-Nov-14 03:00N 26°14' W 079°41'5 9.9
2017-Nov-14 02:31N 26°11' W 079°45'5 9.3
2017-Nov-14 02:00N 26°09' W 079°50'510.2
2017-Nov-14 01:30N 26°07' W 079°55'510.9
2017-Nov-14 01:00N 26°06' W 080°01'5 9.7
2017-Nov-14 00:31N 26°06' W 080°06'2 3.1
2017-Nov-14 00:00N 26°04' W 080°07'0 0.0
2017-Nov-13 23:30N 26°04' W 080°07'0 0.0
2017-Nov-13 23:01N 26°04' W 080°07'0 0.0
2017-Nov-13 22:31N 26°04' W 080°07'0 0.0
2017-Nov-13 22:01N 26°04' W 080°07'  
2017-Nov-09 05:18N 26°08' W 079°30'311.5
2017-Nov-09 05:00N 26°07' W 079°34'611.4
2017-Nov-09 04:30N 26°07' W 079°40'611.3
2017-Nov-09 04:00N 26°07' W 079°47'611.5
2017-Nov-09 03:30N 26°06' W 079°53'611.8
2017-Nov-09 03:00N 26°05' W 079°60'510.4
2017-Nov-09 02:30N 26°06' W 080°05'2 4.0
2017-Nov-09 02:00N 26°04' W 080°07'0 0.1
2017-Nov-09 01:30N 26°04' W 080°07'0 0.0
2017-Nov-09 01:00N 26°04' W 080°07'0 0.0
2017-Nov-09 00:30N 26°04' W 080°07'0 0.0
2017-Nov-09 00:00N 26°04' W 080°07'0 0.0
2017-Nov-08 23:30N 26°04' W 080°07'0 0.0
2017-Nov-08 23:00N 26°04' W 080°07'0 0.0
2017-Nov-08 22:30N 26°04' W 080°07'0 0.0
2017-Nov-08 22:00N 26°04' W 080°07'0 0.0
2017-Nov-08 21:30N 26°04' W 080°07'0 0.0
2017-Nov-08 21:00N 26°04' W 080°07'0 0.0
2017-Nov-08 20:30N 26°04' W 080°07'0 0.0
2017-Nov-08 20:00N 26°04' W 080°07'0 0.0
2017-Nov-08 19:30N 26°04' W 080°07'0 0.0
2017-Nov-08 19:00N 26°04' W 080°07'0 0.1
2017-Nov-08 18:30N 26°04' W 080°07'3 5.6
2017-Nov-08 18:00N 26°06' W 080°04'2 4.2
2017-Nov-08 17:31N 26°08' W 080°04'0 0.1
2017-Nov-08 16:59N 26°08' W 080°04'0 0.0
2017-Nov-08 16:29N 26°08' W 080°04'0 0.0
2017-Nov-08 15:59N 26°08' W 080°04'0 0.0
2017-Nov-08 15:30N 26°08' W 080°04'0 0.0
2017-Nov-08 15:00N 26°08' W 080°04'0 0.0
2017-Nov-08 14:30N 26°08' W 080°04'0 0.0
2017-Nov-08 14:00N 26°08' W 080°04'0 0.0
2017-Nov-08 13:30N 26°08' W 080°04'0 0.1
2017-Nov-08 13:01N 26°08' W 080°05'510.0
2017-Nov-08 12:30N 26°10' W 079°60'510.8
2017-Nov-08 12:00N 26°13' W 079°54'510.5
2017-Nov-08 11:30N 26°16' W 079°50'510.1
2017-Nov-08 11:00N 26°19' W 079°45'4 7.7
2017-Nov-08 10:30N 26°19' W 079°41'714.1
2017-Nov-08 10:00N 26°13' W 079°37'510.3
2017-Nov-08 09:30N 26°11' W 079°32'611.2
2017-Nov-08 08:59N 26°12' W 079°25'5 0.2
2017-Nov-07 02:56N 26°08' W 079°29'511.6
2017-Nov-07 02:30N 26°08' W 079°34'611.4
2017-Nov-07 02:00N 26°08' W 079°41'611.2
2017-Nov-07 01:30N 26°08' W 079°47'611.2
2017-Nov-07 01:00N 26°07' W 079°53'511.0
2017-Nov-07 00:30N 26°06' W 079°59'510.7
2017-Nov-07 00:00N 26°05' W 080°05'2 4.1
2017-Nov-06 23:30N 26°04' W 080°07'0 0.1
2017-Nov-06 23:00N 26°04' W 080°07'0 0.0
2017-Nov-06 22:30N 26°04' W 080°07'0 0.0
2017-Nov-06 22:00N 26°04' W 080°07'0 0.0
2017-Nov-06 21:30N 26°04' W 080°07'0 0.0
2017-Nov-06 21:00N 26°04' W 080°07'0 0.0
2017-Nov-06 20:30N 26°04' W 080°07'  

Dump ship's entire track history